Time;durP1;ratioP1;P1;durP2;ratioP2;P2;SDS_P1;SDS_P2;PMS_P1;PMS_P2;Temp;Humidity;BMP_temperature;BMP_pressure;BME280_temperature;BME280_humidity;BME280_pressure;Samples;Min_cycle;Max_cycle;Signal;HPM_P1;HPM_P2
2022/01/03 00:01:44;;;;;;;24.02;14.43;;;;;;;;;;5057043;28;20250;-63
2022/01/03 00:04:14;;;;;;;39.88;20.90;;;;;;;;;;5056807;28;20549;-63
2022/01/03 00:06:42;;;;;;;32.85;16.65;;;;;;;;;;5057206;28;20232;-64
2022/01/03 00:09:09;;;;;;;25.50;14.18;;;;;;;;;;5057049;28;20212;-64
2022/01/03 00:11:36;;;;;;;61.92;27.05;;;;;;;;;;5056677;28;20212;-63
2022/01/03 00:14:04;;;;;;;28.48;16.52;;;;;;;;;;5057012;28;20212;-62
2022/01/03 00:16:31;;;;;;;39.95;17.15;;;;;;;;;;5056873;28;20215;-64
2022/01/03 00:18:58;;;;;;;28.02;14.82;;;;;;;;;;5056820;28;20218;-63
2022/01/03 00:21:30;;;;;;;35.50;17.70;;;;;;;;;;5056806;28;20215;-63
2022/01/03 00:24:08;;;;;;;24.08;13.77;;;;;;;;;;5056405;28;20251;-63
2022/01/03 00:26:37;;;;;;;37.85;18.30;;;;;;;;;;5056410;28;20231;-63
2022/01/03 00:29:09;;;;;;;30.98;17.55;;;;;;;;;;5056573;28;20575;-63
2022/01/03 00:31:39;;;;;;;25.65;14.00;;;;;;;;;;5056654;28;20239;-64
2022/01/03 00:34:09;;;;;;;26.83;16.33;;;;;;;;;;5056693;28;20200;-63
2022/01/03 00:36:38;;;;;;;26.58;15.00;;;;;;;;;;5056537;28;20212;-63
2022/01/03 00:39:07;;;;;;;19.95;10.30;;;;;;;;;;5056526;28;20211;-63
2022/01/03 00:41:39;;;;;;;18.35;9.85;;;;;;;;;;5056423;28;20219;-63
2022/01/03 00:44:07;;;;;;;42.97;17.75;;;;;;;;;;5056110;28;20207;-62
2022/01/03 00:46:35;;;;;;;35.90;17.00;;;;;;;;;;5056195;28;20297;-62
2022/01/03 00:49:03;;;;;;;40.08;17.70;;;;;;;;;;5056296;28;20212;-63
2022/01/03 00:51:31;;;;;;;24.35;12.20;;;;;;;;;;5056178;28;20251;-64
2022/01/03 00:53:58;;;;;;;18.90;10.70;;;;;;;;;;5038407;28;20753;-62
2022/01/03 00:56:34;;;;;;;20.88;10.95;;;;;;;;;;5038397;28;20237;-62
2022/01/03 00:59:07;;;;;;;22.67;10.07;;;;;;;;;;5056271;28;20506;-64
2022/01/03 01:01:38;;;;;;;46.50;15.63;;;;;;;;;;5022238;28;20197;-63
2022/01/03 01:04:07;;;;;;;38.95;15.90;;;;;;;;;;5055748;28;20640;-64
2022/01/03 01:06:37;;;;;;;29.13;13.63;;;;;;;;;;5038311;28;20629;-63
2022/01/03 01:09:07;;;;;;;24.10;11.23;;;;;;;;;;5037867;28;20619;-62
2022/01/03 01:11:35;;;;;;;18.00;10.02;;;;;;;;;;5038222;28;20216;-63
2022/01/03 01:14:03;;;;;;;12.73;7.07;;;;;;;;;;5038203;28;20208;-64
2022/01/03 01:16:30;;;;;;;22.05;10.90;;;;;;;;;;5037774;28;20667;-65
2022/01/03 01:18:58;;;;;;;21.17;11.55;;;;;;;;;;5038118;28;20215;-64
2022/01/03 01:21:26;;;;;;;17.63;7.82;;;;;;;;;;5038023;28;20212;-63
2022/01/03 01:23:58;;;;;;;16.65;8.43;;;;;;;;;;5037683;28;20238;-65
2022/01/03 01:29:08;;;;;;;13.48;7.88;;;;;;;;;;5037507;28;20226;-64
2022/01/03 01:31:46;;;;;;;10.27;6.07;;;;;;;;;;5055444;28;20258;-64
2022/01/03 01:34:22;;;;;;;22.05;11.35;;;;;;;;;;5037502;28;20342;-64
2022/01/03 01:36:53;;;;;;;27.52;16.20;;;;;;;;;;5037432;28;20208;-62
2022/01/03 01:39:23;;;;;;;18.38;9.02;;;;;;;;;;5037696;28;20234;-63
2022/01/03 01:41:57;;;;;;;15.07;6.50;;;;;;;;;;5037336;28;20204;-64
2022/01/03 01:44:26;;;;;;;13.23;6.53;;;;;;;;;;5037707;28;20200;-64
2022/01/03 01:46:58;;;;;;;9.15;5.85;;;;;;;;;;5037461;28;20278;-62
2022/01/03 01:49:26;;;;;;;13.80;6.72;;;;;;;;;;5055302;28;20642;-64
2022/01/03 01:52:00;;;;;;;26.77;11.25;;;;;;;;;;5037362;28;20211;-63
2022/01/03 01:54:35;;;;;;;22.63;10.77;;;;;;;;;;5037335;28;20207;-64
2022/01/03 01:57:06;;;;;;;13.88;8.48;;;;;;;;;;5037353;28;20204;-64
2022/01/03 01:59:54;;;;;;;13.52;7.05;;;;;;;;;;5037111;28;20207;-62
2022/01/03 02:02:36;;;;;;;11.63;5.57;;;;;;;;;;5037147;28;20201;-64
2022/01/03 02:05:09;;;;;;;12.30;6.50;;;;;;;;;;5037158;28;20215;-64
2022/01/03 02:08:04;;;;;;;56.25;19.08;;;;;;;;;;5054797;28;20224;-62
2022/01/03 02:10:50;;;;;;;22.35;11.48;;;;;;;;;;5036832;28;20206;-64
2022/01/03 02:13:21;;;;;;;25.98;11.30;;;;;;;;;;5037056;28;20200;-62
2022/01/03 02:16:00;;;;;;;20.55;9.15;;;;;;;;;;5036922;28;20606;-63
2022/01/03 02:18:28;;;;;;;15.00;8.52;;;;;;;;;;5037167;28;20195;-64
2022/01/03 02:20:56;;;;;;;11.20;6.38;;;;;;;;;;5054616;28;20222;-62
2022/01/03 02:23:24;;;;;;;10.35;6.18;;;;;;;;;;5036473;28;20246;-64
2022/01/03 02:25:52;;;;;;;18.88;9.82;;;;;;;;;;5036823;28;20212;-64
2022/01/03 02:28:22;;;;;;;15.52;8.10;;;;;;;;;;5036713;28;20223;-62
2022/01/03 02:30:52;;;;;;;12.85;6.45;;;;;;;;;;5036760;28;20245;-64
2022/01/03 02:33:20;;;;;;;10.70;5.88;;;;;;;;;;5036819;28;20212;-64
2022/01/03 02:35:48;;;;;;;9.85;5.45;;;;;;;;;;5036633;28;20261;-63
2022/01/03 02:38:17;;;;;;;10.65;5.40;;;;;;;;;;5036738;28;20208;-63
2022/01/03 02:40:47;;;;;;;42.83;15.25;;;;;;;;;;5035827;28;20204;-62
2022/01/03 02:43:15;;;;;;;22.33;9.90;;;;;;;;;;5036331;28;20772;-62
2022/01/03 02:45:42;;;;;;;11.23;6.80;;;;;;;;;;5036326;28;20208;-63
2022/01/03 02:48:12;;;;;;;12.18;6.95;;;;;;;;;;5036574;28;20215;-62
2022/01/03 02:50:40;;;;;;;11.57;6.60;;;;;;;;;;5036215;28;20610;-63
2022/01/03 02:53:10;;;;;;;14.07;5.80;;;;;;;;;;5036582;28;20196;-63
2022/01/03 02:55:39;;;;;;;8.55;5.50;;;;;;;;;;5036496;28;20208;-62
2022/01/03 02:58:07;;;;;;;31.48;14.10;;;;;;;;;;5036394;28;20241;-62
2022/01/03 03:00:48;;;;;;;13.13;5.57;;;;;;;;;;5036351;28;20223;-64
2022/01/03 03:03:39;;;;;;;13.82;5.82;;;;;;;;;;5053696;28;20212;-64
2022/01/03 03:06:07;;;;;;;9.38;5.22;;;;;;;;;;5036188;28;20295;-64
2022/01/03 03:08:36;;;;;;;10.80;5.13;;;;;;;;;;5036530;28;20227;-65
2022/01/03 03:11:04;;;;;;;11.15;5.55;;;;;;;;;;5020407;28;20212;-64
2022/01/03 03:13:31;;;;;;;7.22;4.22;;;;;;;;;;5036398;28;20218;-65
2022/01/03 03:16:03;;;;;;;17.30;9.38;;;;;;;;;;5036093;28;20200;-64
2022/01/03 03:18:31;;;;;;;16.50;8.60;;;;;;;;;;5036147;28;20212;-64
2022/01/03 03:20:59;;;;;;;10.20;6.80;;;;;;;;;;5036242;28;20214;-65
2022/01/03 03:23:27;;;;;;;9.43;4.97;;;;;;;;;;5035943;28;20250;-64
2022/01/03 03:25:54;;;;;;;8.93;4.47;;;;;;;;;;5036154;28;20294;-64
2022/01/03 03:28:25;;;;;;;9.98;5.22;;;;;;;;;;5036150;28;20219;-64
2022/01/03 03:30:58;;;;;;;24.27;9.52;;;;;;;;;;5035908;28;20211;-64
2022/01/03 03:33:36;;;;;;;12.90;7.95;;;;;;;;;;5053982;28;20196;-62
2022/01/03 03:36:05;;;;;;;11.65;6.40;;;;;;;;;;5035755;28;20667;-63
2022/01/03 03:38:32;;;;;;;14.57;7.07;;;;;;;;;;5036028;28;20212;-65
2022/01/03 03:41:04;;;;;;;11.80;6.13;;;;;;;;;;5036275;28;20193;-63
2022/01/03 03:43:36;;;;;;;10.38;5.43;;;;;;;;;;5036244;28;20212;-64
2022/01/03 03:46:08;;;;;;;8.73;5.03;;;;;;;;;;5035800;28;20593;-64
2022/01/03 03:48:38;;;;;;;32.45;12.85;;;;;;;;;;5035787;28;20246;-64
2022/01/03 03:51:05;;;;;;;15.40;6.05;;;;;;;;;;5035721;28;20569;-62
2022/01/03 03:53:34;;;;;;;13.00;6.47;;;;;;;;;;5039789;28;20216;-63
2022/01/03 03:56:02;;;;;;;13.45;5.50;;;;;;;;;;5039608;28;20613;-65
2022/01/03 03:58:32;;;;;;;19.45;8.57;;;;;;;;;;5039639;28;20196;-65
2022/01/03 04:01:00;;;;;;;10.15;5.40;;;;;;;;;;5039499;28;20208;-64
2022/01/03 04:03:40;;;;;;;10.43;4.40;;;;;;;;;;5039457;28;20659;-63
2022/01/03 04:06:09;;;;;;;15.48;7.32;;;;;;;;;;5039499;28;20211;-65
2022/01/03 04:08:37;;;;;;;16.17;6.68;;;;;;;;;;5039307;28;20648;-65
2022/01/03 04:11:05;;;;;;;10.30;5.18;;;;;;;;;;5038999;28;20314;-64
2022/01/03 04:13:34;;;;;;;9.88;4.90;;;;;;;;;;5039267;28;20208;-65
2022/01/03 04:16:04;;;;;;;6.75;4.38;;;;;;;;;;5039222;28;20208;-65
2022/01/03 04:18:31;;;;;;;8.73;4.63;;;;;;;;;;5056734;28;20265;-64
2022/01/03 04:20:59;;;;;;;11.27;5.25;;;;;;;;;;5038962;28;20294;-65
2022/01/03 04:23:26;;;;;;;11.18;6.10;;;;;;;;;;5035456;28;20727;-65
2022/01/03 04:25:54;;;;;;;11.85;4.55;;;;;;;;;;5036892;28;20213;-64
2022/01/03 04:28:21;;;;;;;8.45;4.68;;;;;;;;;;5035426;28;20240;-64
2022/01/03 04:30:51;;;;;;;9.77;4.38;;;;;;;;;;5035383;28;20212;-64
2022/01/03 04:33:18;;;;;;;7.43;4.15;;;;;;;;;;5035801;28;20216;-65
2022/01/03 04:35:46;;;;;;;8.63;3.63;;;;;;;;;;5035458;28;20221;-65
2022/01/03 04:38:14;;;;;;;12.27;6.28;;;;;;;;;;5035371;28;20208;-64
2022/01/03 04:40:41;;;;;;;17.65;8.15;;;;;;;;;;5035627;28;20209;-65
2022/01/03 04:43:09;;;;;;;9.32;4.47;;;;;;;;;;5036742;28;20242;-63
2022/01/03 04:45:36;;;;;;;9.90;4.65;;;;;;;;;;5035567;28;20224;-63
2022/01/03 04:48:04;;;;;;;8.80;4.40;;;;;;;;;;5036190;28;20235;-65
2022/01/03 04:50:32;;;;;;;7.43;4.45;;;;;;;;;;5034953;28;20630;-64
2022/01/03 04:52:59;;;;;;;10.25;4.75;;;;;;;;;;5019016;28;20208;-65
2022/01/03 04:55:27;;;;;;;41.53;14.18;;;;;;;;;;5036353;28;20213;-62
2022/01/03 04:57:54;;;;;;;8.57;4.70;;;;;;;;;;5035261;28;20212;-63
2022/01/03 05:00:22;;;;;;;8.52;4.47;;;;;;;;;;5029066;28;20240;-63
2022/01/03 05:02:49;;;;;;;13.00;5.85;;;;;;;;;;5028191;28;20310;-63
2022/01/03 05:05:18;;;;;;;7.97;4.30;;;;;;;;;;5033608;28;20241;-62
2022/01/03 05:07:46;;;;;;;12.05;5.05;;;;;;;;;;5026391;28;20249;-63
2022/01/03 05:10:14;;;;;;;7.78;4.30;;;;;;;;;;5026477;28;20238;-65
2022/01/03 05:12:43;;;;;;;17.52;7.68;;;;;;;;;;5026254;28;20237;-64
2022/01/03 05:15:10;;;;;;;14.35;7.13;;;;;;;;;;5020911;28;20244;-64
2022/01/03 05:17:37;;;;;;;13.93;4.80;;;;;;;;;;5035482;28;20244;-63
2022/01/03 05:20:05;;;;;;;12.75;6.50;;;;;;;;;;5034317;28;20235;-61
2022/01/03 05:22:33;;;;;;;13.77;6.05;;;;;;;;;;5034276;28;20291;-62
2022/01/03 05:25:01;;;;;;;6.63;4.38;;;;;;;;;;5034068;28;20240;-62
2022/01/03 05:27:29;;;;;;;8.32;4.50;;;;;;;;;;5017975;28;20252;-62
2022/01/03 05:29:57;;;;;;;22.85;9.60;;;;;;;;;;5033429;28;20313;-61
2022/01/03 05:32:26;;;;;;;13.52;7.35;;;;;;;;;;5027621;28;20312;-61
2022/01/03 05:34:53;;;;;;;9.77;4.65;;;;;;;;;;5024572;28;20233;-62
2022/01/03 05:37:21;;;;;;;11.50;4.63;;;;;;;;;;5034017;28;20311;-63
2022/01/03 05:39:48;;;;;;;7.53;4.20;;;;;;;;;;5033557;28;20286;-63
2022/01/03 05:42:16;;;;;;;7.32;4.05;;;;;;;;;;5032945;28;20279;-62
2022/01/03 05:44:44;;;;;;;13.43;6.28;;;;;;;;;;5030443;28;20233;-62
2022/01/03 05:47:11;;;;;;;6.88;3.40;;;;;;;;;;5023145;28;20628;-62
2022/01/03 05:49:39;;;;;;;13.48;5.00;;;;;;;;;;5028817;28;20228;-61
2022/01/03 05:52:07;;;;;;;11.45;3.47;;;;;;;;;;5029459;28;20263;-61
2022/01/03 05:54:34;;;;;;;11.57;4.65;;;;;;;;;;5033302;28;20264;-61
2022/01/03 05:57:02;;;;;;;12.52;4.38;;;;;;;;;;5033140;28;20232;-61
2022/01/03 05:59:29;;;;;;;12.07;4.88;;;;;;;;;;5033941;28;20741;-62
2022/01/03 06:01:57;;;;;;;13.23;4.50;;;;;;;;;;5032945;28;20727;-62
2022/01/03 06:04:37;;;;;;;10.02;5.70;;;;;;;;;;5034561;28;20252;-60
2022/01/03 06:07:09;;;;;;;12.30;7.25;;;;;;;;;;5032764;28;20248;-61
2022/01/03 06:09:48;;;;;;;6.05;3.60;;;;;;;;;;5029605;28;20243;-65
2022/01/03 06:12:18;;;;;;;9.55;4.45;;;;;;;;;;5032868;28;20236;-64
2022/01/03 06:14:49;;;;;;;9.10;4.25;;;;;;;;;;5028225;28;20244;-63
2022/01/03 06:17:17;;;;;;;9.43;3.57;;;;;;;;;;5013006;28;20320;-63
2022/01/03 06:19:47;;;;;;;18.17;7.45;;;;;;;;;;5013385;28;20261;-63
2022/01/03 06:22:16;;;;;;;10.48;5.20;;;;;;;;;;5012684;28;20233;-62
2022/01/03 06:24:48;;;;;;;12.45;5.50;;;;;;;;;;5013214;28;20705;-62
2022/01/03 06:27:17;;;;;;;9.48;5.35;;;;;;;;;;5012737;28;20272;-60
2022/01/03 06:29:45;;;;;;;6.20;3.60;;;;;;;;;;5012155;28;20237;-62
2022/01/03 06:32:14;;;;;;;6.75;3.80;;;;;;;;;;5023704;28;20590;-62
2022/01/03 06:34:42;;;;;;;8.25;3.80;;;;;;;;;;5029833;28;20315;-60
2022/01/03 06:37:13;;;;;;;10.60;5.32;;;;;;;;;;5021646;28;21105;-61
2022/01/03 06:40:04;;;;;;;9.10;5.40;;;;;;;;;;5021371;28;21039;-60
2022/01/03 06:42:32;;;;;;;10.80;4.40;;;;;;;;;;5009099;28;20224;-60
2022/01/03 06:45:01;;;;;;;7.93;4.07;;;;;;;;;;5031589;28;20260;-60
2022/01/03 06:47:29;;;;;;;6.47;3.58;;;;;;;;;;5031301;28;20252;-62
2022/01/03 06:49:56;;;;;;;7.40;3.97;;;;;;;;;;5031944;28;20232;-60
2022/01/03 06:52:24;;;;;;;9.70;5.03;;;;;;;;;;5015406;28;20233;-62
2022/01/03 06:54:51;;;;;;;13.25;5.80;;;;;;;;;;5031925;28;20239;-62
2022/01/03 06:57:19;;;;;;;8.48;4.78;;;;;;;;;;5030175;28;20267;-61
2022/01/03 06:59:47;;;;;;;10.40;4.45;;;;;;;;;;5030885;28;20758;-61
2022/01/03 07:02:15;;;;;;;14.13;5.10;;;;;;;;;;5031528;28;20640;-62
2022/01/03 07:04:42;;;;;;;10.27;4.78;;;;;;;;;;5032712;28;20232;-63
2022/01/03 07:07:10;;;;;;;14.23;6.45;;;;;;;;;;5032508;28;20229;-64
2022/01/03 07:09:37;;;;;;;14.57;8.27;;;;;;;;;;5032425;28;20239;-61
2022/01/03 07:12:06;;;;;;;12.63;5.57;;;;;;;;;;5032749;28;20236;-64
2022/01/03 07:19:49;;;;;;;16.20;6.17;;;;;;;;;;5032773;28;20286;-64
2022/01/03 07:22:17;;;;;;;8.88;4.80;;;;;;;;;;5032534;28;20240;-61
2022/01/03 07:24:44;;;;;;;13.68;6.55;;;;;;;;;;5050470;28;20281;-64
2022/01/03 07:27:12;;;;;;;27.58;11.95;;;;;;;;;;5036684;28;20618;-62
2022/01/03 07:29:40;;;;;;;14.95;8.27;;;;;;;;;;5055032;28;20246;-63
2022/01/03 07:32:08;;;;;;;18.65;7.45;;;;;;;;;;5049839;28;20258;-63
2022/01/03 07:34:35;;;;;;;18.17;7.95;;;;;;;;;;5049634;28;20235;-62
2022/01/03 07:37:03;;;;;;;13.73;6.55;;;;;;;;;;5049319;28;20240;-65
2022/01/03 07:39:31;;;;;;;16.92;7.00;;;;;;;;;;5046125;28;20236;-65
2022/01/03 07:41:58;;;;;;;16.08;6.45;;;;;;;;;;5044954;28;20283;-64
2022/01/03 07:44:32;;;;;;;22.80;8.85;;;;;;;;;;5030231;28;20239;-67
2022/01/03 07:47:01;;;;;;;30.15;12.25;;;;;;;;;;5049929;28;20242;-63
2022/01/03 07:49:28;;;;;;;23.65;13.85;;;;;;;;;;5048724;28;20415;-63
2022/01/03 07:51:56;;;;;;;16.50;7.43;;;;;;;;;;5049581;28;20324;-63
2022/01/03 07:54:24;;;;;;;14.30;6.22;;;;;;;;;;5044778;28;20231;-64
2022/01/03 07:56:53;;;;;;;9.52;5.25;;;;;;;;;;5027856;28;20385;-63
2022/01/03 07:59:21;;;;;;;36.40;14.32;;;;;;;;;;5047777;28;20240;-63
2022/01/03 08:01:59;;;;;;;28.35;10.35;;;;;;;;;;5054264;28;20297;-63
2022/01/03 08:04:27;;;;;;;25.15;10.50;;;;;;;;;;5055536;28;20232;-63
2022/01/03 08:06:55;;;;;;;19.52;9.02;;;;;;;;;;5055323;28;20687;-63
2022/01/03 08:09:22;;;;;;;17.48;9.18;;;;;;;;;;5054694;28;20256;-64
2022/01/03 08:11:52;;;;;;;16.73;8.45;;;;;;;;;;5030048;28;20316;-65
2022/01/03 08:14:19;;;;;;;11.18;5.57;;;;;;;;;;5046367;28;20225;-64
2022/01/03 08:16:47;;;;;;;16.73;6.75;;;;;;;;;;5043324;28;20239;-62
2022/01/03 08:19:14;;;;;;;30.27;11.95;;;;;;;;;;5038939;28;20233;-64
2022/01/03 08:21:41;;;;;;;29.58;12.40;;;;;;;;;;5042867;28;20232;-63
2022/01/03 08:24:08;;;;;;;17.38;8.32;;;;;;;;;;5044970;28;20747;-64
2022/01/03 08:26:38;;;;;;;20.60;10.95;;;;;;;;;;5042449;28;20244;-62
2022/01/03 08:29:05;;;;;;;15.98;8.05;;;;;;;;;;5042079;28;20247;-64
2022/01/03 08:31:32;;;;;;;14.95;6.65;;;;;;;;;;5040208;28;20240;-63
2022/01/03 08:34:06;;;;;;;25.50;11.20;;;;;;;;;;5040369;28;20238;-63
2022/01/03 08:36:33;;;;;;;34.85;11.20;;;;;;;;;;5038854;28;20278;-63
2022/01/03 08:39:03;;;;;;;29.38;9.95;;;;;;;;;;5034026;28;20255;-63
2022/01/03 08:41:30;;;;;;;18.23;7.70;;;;;;;;;;5042221;28;20231;-64
2022/01/03 08:43:58;;;;;;;17.15;8.23;;;;;;;;;;5027576;28;20290;-64
2022/01/03 08:46:27;;;;;;;23.15;11.13;;;;;;;;;;5046717;28;20213;-64
2022/01/03 08:48:55;;;;;;;19.88;8.95;;;;;;;;;;5046226;28;20240;-62
2022/01/03 08:51:22;;;;;;;32.08;12.90;;;;;;;;;;5043525;28;20212;-63
2022/01/03 08:53:49;;;;;;;20.30;10.32;;;;;;;;;;5039682;28;20213;-63
2022/01/03 08:56:17;;;;;;;16.85;7.40;;;;;;;;;;5050126;28;20298;-63
2022/01/03 08:59:04;;;;;;;14.68;7.35;;;;;;;;;;5029754;28;20725;-63
2022/01/03 09:01:32;;;;;;;16.75;7.25;;;;;;;;;;5041222;28;20213;-63
2022/01/03 09:03:59;;;;;;;14.13;7.32;;;;;;;;;;5040023;28;20263;-63
2022/01/03 09:06:27;;;;;;;15.25;7.05;;;;;;;;;;5041099;28;20223;-63
2022/01/03 09:08:55;;;;;;;28.40;11.65;;;;;;;;;;5041477;28;20236;-63
2022/01/03 09:11:22;;;;;;;26.48;12.55;;;;;;;;;;5045536;28;20221;-63
2022/01/03 09:13:50;;;;;;;15.30;8.70;;;;;;;;;;5043017;28;20265;-63
2022/01/03 09:16:18;;;;;;;16.67;8.48;;;;;;;;;;5045169;28;20230;-62
2022/01/03 09:18:45;;;;;;;23.13;9.40;;;;;;;;;;5043404;28;20219;-63
2022/01/03 09:21:12;;;;;;;19.10;9.25;;;;;;;;;;5044585;28;20222;-63
2022/01/03 09:23:45;;;;;;;20.67;8.30;;;;;;;;;;5038025;28;20243;-63
2022/01/03 09:28:53;;;;;;;31.90;12.13;;;;;;;;;;5040261;28;20259;-63
2022/01/03 09:31:41;;;;;;;25.00;10.77;;;;;;;;;;5042660;28;20307;-63
2022/01/03 09:34:08;;;;;;;21.90;10.85;;;;;;;;;;5045329;28;20716;-62
2022/01/03 09:36:35;;;;;;;17.15;8.65;;;;;;;;;;5027412;28;20307;-62
2022/01/03 09:39:04;;;;;;;18.05;9.57;;;;;;;;;;5042395;28;20222;-62
2022/01/03 09:41:33;;;;;;;32.38;11.75;;;;;;;;;;5042367;28;20709;-63
2022/01/03 09:44:03;;;;;;;29.75;11.30;;;;;;;;;;5044133;28;20318;-62
2022/01/03 09:46:37;;;;;;;27.75;10.90;;;;;;;;;;5046264;28;20216;-63
2022/01/03 09:49:09;;;;;;;35.63;12.60;;;;;;;;;;5044597;28;20285;-63
2022/01/03 09:51:38;;;;;;;30.58;9.93;;;;;;;;;;5048650;28;20273;-63
2022/01/03 09:54:08;;;;;;;20.02;9.95;;;;;;;;;;5053435;28;20345;-63
2022/01/03 09:56:40;;;;;;;22.33;10.05;;;;;;;;;;5052776;28;20621;-63
2022/01/03 09:59:10;;;;;;;18.75;8.82;;;;;;;;;;5041573;28;20279;-63
2022/01/03 10:01:41;;;;;;;12.85;7.18;;;;;;;;;;5045930;28;20243;-62
2022/01/03 10:04:11;;;;;;;12.38;5.80;;;;;;;;;;5054241;28;20212;-62
2022/01/03 10:06:40;;;;;;;11.77;5.65;;;;;;;;;;5054036;28;20651;-61
2022/01/03 10:09:07;;;;;;;8.85;5.53;;;;;;;;;;5036255;28;20243;-62
2022/01/03 10:11:34;;;;;;;23.80;9.70;;;;;;;;;;5053958;28;20247;-63
2022/01/03 10:14:09;;;;;;;25.98;11.40;;;;;;;;;;5054051;28;20383;-62
2022/01/03 10:16:36;;;;;;;26.73;13.00;;;;;;;;;;5053416;28;20295;-63
2022/01/03 10:19:23;;;;;;;19.83;9.32;;;;;;;;;;5053912;28;20208;-62
2022/01/03 10:21:51;;;;;;;16.20;9.45;;;;;;;;;;5054018;28;20572;-63
2022/01/03 10:24:31;;;;;;;19.02;8.45;;;;;;;;;;5053578;28;20240;-63
2022/01/03 10:26:58;;;;;;;21.73;8.88;;;;;;;;;;5048580;28;20216;-63
2022/01/03 10:29:28;;;;;;;18.25;8.75;;;;;;;;;;5036166;28;20281;-63
2022/01/03 10:31:59;;;;;;;39.42;12.88;;;;;;;;;;5053526;28;20208;-62
2022/01/03 10:34:27;;;;;;;35.35;11.98;;;;;;;;;;5036049;28;20689;-63
2022/01/03 10:36:56;;;;;;;14.75;7.72;;;;;;;;;;5053301;28;20737;-63
2022/01/03 10:39:30;;;;;;;12.65;7.50;;;;;;;;;;5053670;28;20236;-63
2022/01/03 10:42:17;;;;;;;13.70;6.85;;;;;;;;;;5052317;28;20269;-62
2022/01/03 10:44:45;;;;;;;15.80;7.35;;;;;;;;;;5042655;28;20290;-63
2022/01/03 10:47:15;;;;;;;23.13;9.43;;;;;;;;;;5044834;28;20214;-62
2022/01/03 10:49:44;;;;;;;20.77;9.57;;;;;;;;;;5043570;28;20298;-63
2022/01/03 10:52:11;;;;;;;17.20;7.47;;;;;;;;;;5033127;28;20222;-63
2022/01/03 10:54:39;;;;;;;32.22;11.50;;;;;;;;;;5051344;28;20778;-63
2022/01/03 10:57:07;;;;;;;17.30;9.50;;;;;;;;;;5035643;28;20212;-62
2022/01/03 10:59:36;;;;;;;26.25;12.05;;;;;;;;;;5053352;28;20256;-62
2022/01/03 11:02:06;;;;;;;18.85;9.05;;;;;;;;;;5052622;28;20208;-63
2022/01/03 11:13:13;;;;;;;25.77;11.43;;;;;;;;;;5047540;28;20320;-64
2022/01/03 11:15:48;;;;;;;26.92;13.52;;;;;;;;;;5046922;28;20674;-63
2022/01/03 11:18:19;;;;;;;16.83;11.75;;;;;;;;;;5053003;28;20339;-64
2022/01/03 11:21:00;;;;;;;35.20;13.85;;;;;;;;;;5049260;28;20235;-63
2022/01/03 11:23:32;;;;;;;34.45;12.60;;;;;;;;;;5051311;28;20698;-63
2022/01/03 11:26:08;;;;;;;31.63;12.75;;;;;;;;;;5048881;28;20267;-64
2022/01/03 11:28:40;;;;;;;20.45;8.77;;;;;;;;;;5047407;28;20259;-64
2022/01/03 11:31:08;;;;;;;31.27;11.52;;;;;;;;;;5051330;28;20227;-66
2022/01/03 11:33:36;;;;;;;30.00;11.30;;;;;;;;;;5052567;28;20627;-64
2022/01/03 11:36:25;;;;;;;24.77;9.10;;;;;;;;;;5052636;28;20236;-65
2022/01/03 11:38:55;;;;;;;30.85;19.55;;;;;;;;;;5051641;28;20238;-64
2022/01/03 11:41:22;;;;;;;29.77;11.07;;;;;;;;;;5052244;28;20232;-65
2022/01/03 11:43:50;;;;;;;24.00;9.63;;;;;;;;;;5052558;28;20278;-65
2022/01/03 11:46:17;;;;;;;27.00;11.10;;;;;;;;;;5052273;28;20224;-66
2022/01/03 11:48:45;;;;;;;28.42;10.80;;;;;;;;;;5035163;28;20254;-66
2022/01/03 11:51:14;;;;;;;16.85;8.02;;;;;;;;;;5052108;28;20231;-66
2022/01/03 11:53:44;;;;;;;26.85;10.68;;;;;;;;;;5051678;28;20362;-66
2022/01/03 11:56:19;;;;;;;31.85;11.40;;;;;;;;;;5051872;28;20247;-66
2022/01/03 12:04:58;;;;;;;14.55;6.75;;;;;;;;;;5052547;28;20243;-65
2022/01/03 12:07:26;;;;;;;11.77;6.57;;;;;;;;;;5052583;28;20311;-66
2022/01/03 12:10:07;;;;;;;14.40;6.85;;;;;;;;;;5033573;28;20244;-64
2022/01/03 12:12:36;;;;;;;20.83;7.00;;;;;;;;;;5053598;28;20252;-65
2022/01/03 12:15:05;;;;;;;40.93;12.67;;;;;;;;;;5055908;28;20277;-67
2022/01/03 12:17:42;;;;;;;33.88;10.98;;;;;;;;;;5055646;28;20228;-66
2022/01/03 12:20:10;;;;;;;36.78;17.10;;;;;;;;;;5055758;28;20270;-64
2022/01/03 12:22:48;;;;;;;17.73;8.38;;;;;;;;;;5038254;28;20240;-64
2022/01/03 12:25:32;;;;;;;8.50;4.68;;;;;;;;;;5053916;28;20247;-64
2022/01/03 12:28:07;;;;;;;13.52;6.25;;;;;;;;;;5056012;28;20282;-66
2022/01/03 12:30:36;;;;;;;25.95;8.93;;;;;;;;;;5055327;28;20389;-67
2022/01/03 12:33:07;;;;;;;9.95;5.57;;;;;;;;;;5056021;28;20274;-67
2022/01/03 12:35:45;;;;;;;27.33;8.88;;;;;;;;;;5055129;28;20623;-67
2022/01/03 12:38:19;;;;;;;21.70;7.82;;;;;;;;;;5054959;28;20582;-67
2022/01/03 12:40:49;;;;;;;21.37;9.03;;;;;;;;;;5055022;28;20232;-67
2022/01/03 12:43:19;;;;;;;21.65;8.15;;;;;;;;;;5055639;28;20258;-65
2022/01/03 12:45:47;;;;;;;33.27;11.00;;;;;;;;;;5038942;28;20691;-65
2022/01/03 12:48:15;;;;;;;24.67;8.63;;;;;;;;;;5055444;28;20231;-66
2022/01/03 12:50:48;;;;;;;33.90;10.65;;;;;;;;;;5054850;28;20239;-66
2022/01/03 12:53:18;;;;;;;8.90;4.60;;;;;;;;;;5054163;28;20247;-65
2022/01/03 12:55:47;;;;;;;35.47;12.63;;;;;;;;;;5045824;28;20286;-67
2022/01/03 12:58:14;;;;;;;25.03;9.40;;;;;;;;;;5055068;28;20227;-68
2022/01/03 13:00:45;;;;;;;17.85;7.20;;;;;;;;;;5054739;28;20239;-67
2022/01/03 13:03:23;;;;;;;12.97;6.07;;;;;;;;;;5055308;28;20228;-66
2022/01/03 13:06:11;;;;;;;31.85;10.65;;;;;;;;;;5053741;28;20738;-67
2022/01/03 13:08:43;;;;;;;24.47;9.13;;;;;;;;;;5050121;28;20240;-66
2022/01/03 13:11:16;;;;;;;17.30;7.05;;;;;;;;;;5054387;28;20247;-65
2022/01/03 13:13:53;;;;;;;15.57;6.25;;;;;;;;;;5053960;28;20588;-63
2022/01/03 13:16:27;;;;;;;18.63;7.63;;;;;;;;;;5053049;28;20267;-68
2022/01/03 13:18:58;;;;;;;26.93;10.10;;;;;;;;;;5051484;28;20231;-67
2022/01/03 13:21:28;;;;;;;25.20;8.93;;;;;;;;;;5053170;28;20228;-66
2022/01/03 13:24:00;;;;;;;19.27;9.77;;;;;;;;;;5027244;28;20272;-65
2022/01/03 13:26:30;;;;;;;39.57;13.97;;;;;;;;;;5028688;28;20790;-65
2022/01/03 13:29:03;;;;;;;11.40;5.78;;;;;;;;;;5034633;28;20232;-64
2022/01/03 13:31:39;;;;;;;47.57;17.47;;;;;;;;;;5028329;28;20650;-65
2022/01/03 13:34:07;;;;;;;19.97;8.77;;;;;;;;;;5019702;28;20240;-64
2022/01/03 13:36:42;;;;;;;42.60;13.50;;;;;;;;;;5033366;28;20686;-64
2022/01/03 13:39:13;;;;;;;48.33;13.77;;;;;;;;;;5034879;28;20236;-65
2022/01/03 13:41:43;;;;;;;39.25;14.40;;;;;;;;;;5034926;28;20610;-65
2022/01/03 13:44:38;;;;;;;45.77;20.50;;;;;;;;;;5021471;28;20260;-65
2022/01/03 13:49:48;;;;;;;20.80;7.93;;;;;;;;;;5034779;28;20290;-63
2022/01/03 13:52:26;;;;;;;29.90;10.90;;;;;;;;;;5035083;28;20707;-65
2022/01/03 13:54:59;;;;;;;41.13;11.23;;;;;;;;;;5035087;28;20241;-65
2022/01/03 13:57:27;;;;;;;47.73;12.20;;;;;;;;;;5034076;28;20244;-65
2022/01/03 13:59:55;;;;;;;54.23;14.53;;;;;;;;;;5034031;28;20252;-63
2022/01/03 14:02:23;;;;;;;35.83;9.70;;;;;;;;;;5034021;28;20763;-64
2022/01/03 14:04:51;;;;;;;10.80;6.27;;;;;;;;;;5034037;28;20709;-67
2022/01/03 14:07:21;;;;;;;14.80;7.67;;;;;;;;;;5033351;28;20233;-66
2022/01/03 14:09:59;;;;;;;18.60;6.93;;;;;;;;;;5032475;28;20696;-64
2022/01/03 14:12:29;;;;;;;30.23;8.60;;;;;;;;;;5033797;28;20228;-65
2022/01/03 14:15:02;;;;;;;47.55;14.73;;;;;;;;;;5034420;28;20233;-64
2022/01/03 14:17:30;;;;;;;12.33;5.10;;;;;;;;;;5033767;28;20704;-65
2022/01/03 14:20:06;;;;;;;16.37;5.37;;;;;;;;;;5033313;28;20688;-66
2022/01/03 14:22:38;;;;;;;26.33;8.77;;;;;;;;;;5023378;28;20236;-67
2022/01/03 14:25:14;;;;;;;36.57;28.40;;;;;;;;;;5023335;28;20236;-64
2022/01/03 14:27:47;;;;;;;22.75;8.07;;;;;;;;;;5033188;28;20240;-63
2022/01/03 14:30:29;;;;;;;18.97;7.13;;;;;;;;;;5033176;28;20259;-65
2022/01/03 14:32:58;;;;;;;16.43;7.17;;;;;;;;;;5033547;28;20597;-64
2022/01/03 14:35:32;;;;;;;13.37;5.77;;;;;;;;;;5033389;28;20239;-63
2022/01/03 14:38:04;;;;;;;10.57;5.50;;;;;;;;;;5032017;28;20239;-63
2022/01/03 14:40:48;;;;;;;14.20;6.27;;;;;;;;;;5033561;28;20236;-65
2022/01/03 14:43:29;;;;;;;40.03;11.83;;;;;;;;;;5032041;28;20744;-67
2022/01/03 14:46:08;;;;;;;27.63;19.03;;;;;;;;;;5033408;28;20691;-65
2022/01/03 14:48:36;;;;;;;34.13;12.10;;;;;;;;;;5017486;28;20282;-64
2022/01/03 14:51:05;;;;;;;20.60;7.90;;;;;;;;;;5033312;28;20248;-65
2022/01/03 14:53:33;;;;;;;20.90;10.10;;;;;;;;;;5031785;28;20331;-64
2022/01/03 14:56:01;;;;;;;15.37;8.40;;;;;;;;;;5033503;28;20240;-66
2022/01/03 14:58:28;;;;;;;10.57;6.10;;;;;;;;;;5032670;28;20262;-65
2022/01/03 15:00:56;;;;;;;17.83;8.73;;;;;;;;;;5033422;28;20260;-67
2022/01/03 15:03:24;;;;;;;12.77;8.07;;;;;;;;;;5033023;28;20229;-64
2022/01/03 15:05:51;;;;;;;45.00;15.80;;;;;;;;;;5033269;28;20579;-66
2022/01/03 15:08:18;;;;;;;13.13;7.47;;;;;;;;;;5031938;28;20239;-64
2022/01/03 15:10:45;;;;;;;18.33;8.13;;;;;;;;;;5032362;28;20252;-68
2022/01/03 15:13:20;;;;;;;19.13;8.27;;;;;;;;;;5032351;28;20232;-65
2022/01/03 15:15:48;;;;;;;11.50;7.07;;;;;;;;;;5033913;28;20347;-66